sensor_id;sensor_type;location;lat;lon;timestamp;noise_LAeq;noise_LA_min;noise_LA_max;noise_LA01;noise_LA95
68279;Laerm;55108;51.790;10.960;2023-03-04T00:00:58;36.88;28.63;55.37;;
68279;Laerm;55108;51.790;10.960;2023-03-04T00:03:23;63.68;29.76;81.58;;
68279;Laerm;55108;51.790;10.960;2023-03-04T00:05:48;56.53;29.94;73.94;;
68279;Laerm;55108;51.790;10.960;2023-03-04T00:08:13;45.65;29.43;68.71;;
68279;Laerm;55108;51.790;10.960;2023-03-04T00:10:38;55.41;30.23;73.72;;
68279;Laerm;55108;51.790;10.960;2023-03-04T00:13:03;58.26;30.63;77.14;;
68279;Laerm;55108;51.790;10.960;2023-03-04T00:15:29;59.16;30.44;79.69;;
68279;Laerm;55108;51.790;10.960;2023-03-04T00:17:54;36.87;28.81;56.22;;
68279;Laerm;55108;51.790;10.960;2023-03-04T00:20:19;55.83;28.11;73.51;;
68279;Laerm;55108;51.790;10.960;2023-03-04T00:22:44;38.40;28.77;63.62;;
68279;Laerm;55108;51.790;10.960;2023-03-04T00:25:10;45.55;29.68;60.77;;
68279;Laerm;55108;51.790;10.960;2023-03-04T00:27:35;42.80;30.26;62.25;;
68279;Laerm;55108;51.790;10.960;2023-03-04T00:30:00;61.19;28.69;77.89;;
68279;Laerm;55108;51.790;10.960;2023-03-04T00:32:25;32.94;29.38;42.73;;
68279;Laerm;55108;51.790;10.960;2023-03-04T00:34:50;32.80;27.81;43.56;;
68279;Laerm;55108;51.790;10.960;2023-03-04T00:37:15;32.46;28.21;45.08;;
68279;Laerm;55108;51.790;10.960;2023-03-04T00:39:40;56.81;28.25;73.52;;
68279;Laerm;55108;51.790;10.960;2023-03-04T00:42:05;33.08;27.73;44.85;;
68279;Laerm;55108;51.790;10.960;2023-03-04T00:44:31;29.79;27.13;46.94;;
68279;Laerm;55108;51.790;10.960;2023-03-04T00:46:56;31.67;27.44;39.44;;
68279;Laerm;55108;51.790;10.960;2023-03-04T00:49:21;57.91;30.44;74.09;;
68279;Laerm;55108;51.790;10.960;2023-03-04T00:51:46;33.81;27.32;55.74;;
68279;Laerm;55108;51.790;10.960;2023-03-04T00:54:11;55.41;27.62;72.82;;
68279;Laerm;55108;51.790;10.960;2023-03-04T00:56:36;44.55;29.88;57.99;;
68279;Laerm;55108;51.790;10.960;2023-03-04T00:59:01;35.61;28.86;48.55;;
68279;Laerm;55108;51.790;10.960;2023-03-04T01:01:27;35.01;30.11;49.10;;
68279;Laerm;55108;51.790;10.960;2023-03-04T01:03:52;35.92;30.35;46.76;;
68279;Laerm;55108;51.790;10.960;2023-03-04T01:06:17;37.70;29.72;53.22;;
68279;Laerm;55108;51.790;10.960;2023-03-04T01:08:42;66.55;35.42;82.34;;
68279;Laerm;55108;51.790;10.960;2023-03-04T01:11:07;42.44;33.28;59.88;;
68279;Laerm;55108;51.790;10.960;2023-03-04T01:13:33;41.03;32.36;53.60;;
68279;Laerm;55108;51.790;10.960;2023-03-04T01:15:58;40.00;34.10;59.27;;
68279;Laerm;55108;51.790;10.960;2023-03-04T01:18:23;44.65;33.20;71.05;;
68279;Laerm;55108;51.790;10.960;2023-03-04T01:20:49;50.68;32.76;66.50;;
68279;Laerm;55108;51.790;10.960;2023-03-04T01:23:14;41.57;33.46;58.44;;
68279;Laerm;55108;51.790;10.960;2023-03-04T01:25:39;41.15;34.07;51.97;;
68279;Laerm;55108;51.790;10.960;2023-03-04T01:28:04;37.79;31.54;48.67;;
68279;Laerm;55108;51.790;10.960;2023-03-04T01:30:29;39.14;31.84;52.80;;
68279;Laerm;55108;51.790;10.960;2023-03-04T01:32:55;37.29;32.63;46.00;;
68279;Laerm;55108;51.790;10.960;2023-03-04T01:35:20;57.27;32.42;75.94;;
68279;Laerm;55108;51.790;10.960;2023-03-04T01:37:45;55.55;33.98;74.28;;
68279;Laerm;55108;51.790;10.960;2023-03-04T01:40:10;57.48;39.24;75.03;;
68279;Laerm;55108;51.790;10.960;2023-03-04T01:42:36;43.64;37.68;59.56;;
68279;Laerm;55108;51.790;10.960;2023-03-04T01:45:03;41.68;33.70;51.99;;
68279;Laerm;55108;51.790;10.960;2023-03-04T01:47:29;48.21;35.94;64.25;;
68279;Laerm;55108;51.790;10.960;2023-03-04T01:49:55;56.85;34.69;72.95;;
68279;Laerm;55108;51.790;10.960;2023-03-04T01:52:21;45.73;32.23;66.44;;
68279;Laerm;55108;51.790;10.960;2023-03-04T01:54:46;38.50;32.49;57.85;;
68279;Laerm;55108;51.790;10.960;2023-03-04T01:57:16;54.66;32.89;73.22;;
68279;Laerm;55108;51.790;10.960;2023-03-04T01:59:42;46.19;29.38;66.33;;
68279;Laerm;55108;51.790;10.960;2023-03-04T02:02:07;45.17;31.89;63.67;;
68279;Laerm;55108;51.790;10.960;2023-03-04T02:04:32;50.34;31.84;66.59;;
68279;Laerm;55108;51.790;10.960;2023-03-04T02:06:58;38.80;31.60;46.93;;
68279;Laerm;55108;51.790;10.960;2023-03-04T02:09:23;42.07;31.89;56.98;;
68279;Laerm;55108;51.790;10.960;2023-03-04T02:11:49;55.32;32.33;73.67;;
68279;Laerm;55108;51.790;10.960;2023-03-04T02:14:15;55.94;31.10;72.35;;
68279;Laerm;55108;51.790;10.960;2023-03-04T02:16:40;36.57;30.17;47.30;;
68279;Laerm;55108;51.790;10.960;2023-03-04T02:19:06;60.08;34.12;74.95;;
68279;Laerm;55108;51.790;10.960;2023-03-04T02:21:35;39.42;31.38;56.22;;
68279;Laerm;55108;51.790;10.960;2023-03-04T02:24:14;40.55;31.41;55.80;;
68279;Laerm;55108;51.790;10.960;2023-03-04T02:26:41;54.72;32.78;71.54;;
68279;Laerm;55108;51.790;10.960;2023-03-04T02:29:11;38.58;31.36;57.03;;
68279;Laerm;55108;51.790;10.960;2023-03-04T02:31:38;48.30;31.07;65.55;;
68279;Laerm;55108;51.790;10.960;2023-03-04T02:34:05;33.91;29.60;55.71;;
68279;Laerm;55108;51.790;10.960;2023-03-04T02:36:31;58.03;30.22;76.62;;
68279;Laerm;55108;51.790;10.960;2023-03-04T02:39:01;36.70;30.26;47.96;;
68279;Laerm;55108;51.790;10.960;2023-03-04T02:41:27;59.94;29.56;78.39;;
68279;Laerm;55108;51.790;10.960;2023-03-04T02:43:53;53.83;31.43;70.80;;
68279;Laerm;55108;51.790;10.960;2023-03-04T02:46:19;57.96;30.33;79.94;;
68279;Laerm;55108;51.790;10.960;2023-03-04T02:48:44;65.34;36.14;84.55;;
68279;Laerm;55108;51.790;10.960;2023-03-04T02:51:09;38.49;30.78;57.25;;
68279;Laerm;55108;51.790;10.960;2023-03-04T02:53:34;41.80;31.53;62.76;;
68279;Laerm;55108;51.790;10.960;2023-03-04T02:56:00;33.65;29.85;49.69;;
68279;Laerm;55108;51.790;10.960;2023-03-04T02:58:25;40.51;31.60;57.06;;
68279;Laerm;55108;51.790;10.960;2023-03-04T03:00:50;64.03;34.42;80.56;;
68279;Laerm;55108;51.790;10.960;2023-03-04T03:03:15;52.37;34.04;68.53;;
68279;Laerm;55108;51.790;10.960;2023-03-04T03:05:40;53.57;30.38;71.34;;
68279;Laerm;55108;51.790;10.960;2023-03-04T03:08:05;53.24;32.53;69.62;;
68279;Laerm;55108;51.790;10.960;2023-03-04T03:10:30;50.09;29.85;68.61;;
68279;Laerm;55108;51.790;10.960;2023-03-04T03:12:56;61.54;35.70;81.75;;
68279;Laerm;55108;51.790;10.960;2023-03-04T03:15:21;57.02;33.60;73.37;;
68279;Laerm;55108;51.790;10.960;2023-03-04T03:17:46;64.33;31.55;83.64;;
68279;Laerm;55108;51.790;10.960;2023-03-04T03:20:12;60.86;33.51;75.79;;
68279;Laerm;55108;51.790;10.960;2023-03-04T03:22:38;39.00;31.64;57.73;;
68279;Laerm;55108;51.790;10.960;2023-03-04T03:25:03;56.30;31.94;72.07;;
68279;Laerm;55108;51.790;10.960;2023-03-04T03:27:29;37.78;30.88;52.61;;
68279;Laerm;55108;51.790;10.960;2023-03-04T03:29:54;41.99;31.78;56.34;;
68279;Laerm;55108;51.790;10.960;2023-03-04T03:32:19;39.15;30.91;55.51;;
68279;Laerm;55108;51.790;10.960;2023-03-04T03:34:44;62.15;33.34;84.01;;
68279;Laerm;55108;51.790;10.960;2023-03-04T03:37:09;37.73;31.67;49.50;;
68279;Laerm;55108;51.790;10.960;2023-03-04T03:39:34;38.35;30.95;55.20;;
68279;Laerm;55108;51.790;10.960;2023-03-04T03:41:59;57.25;33.54;72.74;;
68279;Laerm;55108;51.790;10.960;2023-03-04T03:44:25;46.60;34.67;61.66;;
68279;Laerm;55108;51.790;10.960;2023-03-04T03:46:50;64.71;39.12;81.84;;
68279;Laerm;55108;51.790;10.960;2023-03-04T03:49:15;48.33;35.66;67.02;;
68279;Laerm;55108;51.790;10.960;2023-03-04T03:51:41;54.37;34.06;72.14;;
68279;Laerm;55108;51.790;10.960;2023-03-04T03:54:06;54.85;35.61;74.00;;
68279;Laerm;55108;51.790;10.960;2023-03-04T03:56:31;44.88;32.81;63.63;;
68279;Laerm;55108;51.790;10.960;2023-03-04T03:58:56;41.94;34.07;50.30;;
68279;Laerm;55108;51.790;10.960;2023-03-04T04:01:21;39.03;31.75;65.49;;
68279;Laerm;55108;51.790;10.960;2023-03-04T04:03:46;38.85;31.51;54.02;;
68279;Laerm;55108;51.790;10.960;2023-03-04T04:06:12;44.18;32.61;63.52;;
68279;Laerm;55108;51.790;10.960;2023-03-04T04:08:37;38.37;32.77;45.78;;
68279;Laerm;55108;51.790;10.960;2023-03-04T04:11:02;54.48;34.02;74.45;;
68279;Laerm;55108;51.790;10.960;2023-03-04T04:13:27;66.46;33.39;86.20;;
68279;Laerm;55108;51.790;10.960;2023-03-04T04:15:52;47.83;35.98;69.73;;
68279;Laerm;55108;51.790;10.960;2023-03-04T04:18:18;54.37;34.67;73.90;;
68279;Laerm;55108;51.790;10.960;2023-03-04T04:20:43;58.76;36.03;74.20;;
68279;Laerm;55108;51.790;10.960;2023-03-04T04:23:08;57.63;36.34;76.60;;
68279;Laerm;55108;51.790;10.960;2023-03-04T04:25:33;51.72;33.29;68.81;;
68279;Laerm;55108;51.790;10.960;2023-03-04T04:27:58;55.05;35.29;72.51;;
68279;Laerm;55108;51.790;10.960;2023-03-04T04:30:23;62.46;34.19;80.45;;
68279;Laerm;55108;51.790;10.960;2023-03-04T04:32:49;58.68;33.26;76.12;;
68279;Laerm;55108;51.790;10.960;2023-03-04T04:35:14;62.41;31.79;76.39;;
68279;Laerm;55108;51.790;10.960;2023-03-04T04:37:39;57.76;36.94;75.63;;
68279;Laerm;55108;51.790;10.960;2023-03-04T04:40:04;55.70;35.66;70.19;;
68279;Laerm;55108;51.790;10.960;2023-03-04T04:42:30;60.34;34.70;75.35;;
68279;Laerm;55108;51.790;10.960;2023-03-04T04:44:55;64.68;35.23;80.35;;
68279;Laerm;55108;51.790;10.960;2023-03-04T04:47:21;37.51;30.70;52.93;;
68279;Laerm;55108;51.790;10.960;2023-03-04T04:49:46;54.56;33.22;70.93;;
68279;Laerm;55108;51.790;10.960;2023-03-04T04:52:11;62.30;35.78;75.79;;
68279;Laerm;55108;51.790;10.960;2023-03-04T04:54:36;59.18;35.24;77.79;;
68279;Laerm;55108;51.790;10.960;2023-03-04T04:57:02;57.49;31.09;73.64;;
68279;Laerm;55108;51.790;10.960;2023-03-04T04:59:27;50.91;31.39;67.54;;
68279;Laerm;55108;51.790;10.960;2023-03-04T05:01:52;58.74;33.18;75.24;;
68279;Laerm;55108;51.790;10.960;2023-03-04T05:04:17;52.00;31.58;68.94;;
68279;Laerm;55108;51.790;10.960;2023-03-04T05:06:42;41.92;33.21;69.12;;
68279;Laerm;55108;51.790;10.960;2023-03-04T05:09:07;64.19;36.65;79.12;;
68279;Laerm;55108;51.790;10.960;2023-03-04T05:11:33;59.67;39.71;76.85;;
68279;Laerm;55108;51.790;10.960;2023-03-04T05:13:58;60.15;34.28;73.38;;
68279;Laerm;55108;51.790;10.960;2023-03-04T05:16:23;52.05;32.19;69.03;;
68279;Laerm;55108;51.790;10.960;2023-03-04T05:18:48;41.17;32.74;55.93;;
68279;Laerm;55108;51.790;10.960;2023-03-04T05:21:13;56.65;35.09;73.43;;
68279;Laerm;55108;51.790;10.960;2023-03-04T05:23:39;59.79;36.15;78.14;;
68279;Laerm;55108;51.790;10.960;2023-03-04T05:26:05;56.84;33.47;76.07;;
68279;Laerm;55108;51.790;10.960;2023-03-04T05:28:31;54.92;36.89;70.55;;
68279;Laerm;55108;51.790;10.960;2023-03-04T05:30:56;43.07;34.96;57.59;;
68279;Laerm;55108;51.790;10.960;2023-03-04T05:33:21;56.21;34.69;70.87;;
68279;Laerm;55108;51.790;10.960;2023-03-04T05:35:47;42.51;34.08;59.36;;
68279;Laerm;55108;51.790;10.960;2023-03-04T05:38:13;54.12;37.13;71.06;;
68279;Laerm;55108;51.790;10.960;2023-03-04T05:40:40;63.97;36.07;82.07;;
68279;Laerm;55108;51.790;10.960;2023-03-04T05:43:05;55.42;34.52;74.00;;
68279;Laerm;55108;51.790;10.960;2023-03-04T05:45:30;60.97;37.79;75.93;;
68279;Laerm;55108;51.790;10.960;2023-03-04T05:47:56;55.11;36.66;74.72;;
68279;Laerm;55108;51.790;10.960;2023-03-04T05:50:21;59.08;38.36;75.15;;
68279;Laerm;55108;51.790;10.960;2023-03-04T05:52:48;65.57;39.05;79.06;;
68279;Laerm;55108;51.790;10.960;2023-03-04T05:55:13;61.76;36.58;76.47;;
68279;Laerm;55108;51.790;10.960;2023-03-04T05:57:38;58.19;34.83;74.32;;
68279;Laerm;55108;51.790;10.960;2023-03-04T06:00:04;65.19;39.97;83.52;;
68279;Laerm;55108;51.790;10.960;2023-03-04T06:02:30;67.96;42.57;87.35;;
68279;Laerm;55108;51.790;10.960;2023-03-04T06:04:55;62.58;35.97;77.25;;
68279;Laerm;55108;51.790;10.960;2023-03-04T06:07:20;63.80;37.24;77.10;;
68279;Laerm;55108;51.790;10.960;2023-03-04T06:09:45;66.65;37.21;79.35;;
68279;Laerm;55108;51.790;10.960;2023-03-04T06:12:11;63.51;34.72;77.90;;
68279;Laerm;55108;51.790;10.960;2023-03-04T06:14:36;64.42;35.69;78.82;;
68279;Laerm;55108;51.790;10.960;2023-03-04T06:17:01;64.32;37.12;81.51;;
68279;Laerm;55108;51.790;10.960;2023-03-04T06:19:26;64.29;38.05;80.31;;
68279;Laerm;55108;51.790;10.960;2023-03-04T06:21:52;62.61;37.70;76.72;;
68279;Laerm;55108;51.790;10.960;2023-03-04T06:24:17;61.45;38.56;76.51;;
68279;Laerm;55108;51.790;10.960;2023-03-04T06:26:42;61.99;35.76;78.61;;
68279;Laerm;55108;51.790;10.960;2023-03-04T06:29:07;64.35;39.33;78.02;;
68279;Laerm;55108;51.790;10.960;2023-03-04T06:31:32;63.76;42.67;76.60;;
68279;Laerm;55108;51.790;10.960;2023-03-04T06:33:57;63.39;40.22;80.11;;
68279;Laerm;55108;51.790;10.960;2023-03-04T06:36:23;64.67;40.56;78.43;;
68279;Laerm;55108;51.790;10.960;2023-03-04T06:38:48;62.86;40.18;75.87;;
68279;Laerm;55108;51.790;10.960;2023-03-04T06:41:13;64.64;39.37;77.98;;
68279;Laerm;55108;51.790;10.960;2023-03-04T06:43:38;64.70;39.72;77.13;;
68279;Laerm;55108;51.790;10.960;2023-03-04T06:46:04;64.98;43.55;76.62;;
68279;Laerm;55108;51.790;10.960;2023-03-04T06:48:30;66.98;41.16;79.89;;
68279;Laerm;55108;51.790;10.960;2023-03-04T06:50:55;64.72;39.11;78.00;;
68279;Laerm;55108;51.790;10.960;2023-03-04T06:53:20;65.44;37.98;78.10;;
68279;Laerm;55108;51.790;10.960;2023-03-04T06:55:45;66.26;37.82;80.29;;
68279;Laerm;55108;51.790;10.960;2023-03-04T06:58:10;65.05;39.45;79.56;;
68279;Laerm;55108;51.790;10.960;2023-03-04T07:00:36;63.01;35.05;81.04;;
68279;Laerm;55108;51.790;10.960;2023-03-04T07:03:01;66.47;39.03;80.59;;
68279;Laerm;55108;51.790;10.960;2023-03-04T07:05:26;62.36;39.70;75.99;;
68279;Laerm;55108;51.790;10.960;2023-03-04T07:07:51;63.41;37.20;78.36;;
68279;Laerm;55108;51.790;10.960;2023-03-04T07:10:17;64.51;38.05;77.62;;
68279;Laerm;55108;51.790;10.960;2023-03-04T07:12:43;66.23;41.56;85.50;;
68279;Laerm;55108;51.790;10.960;2023-03-04T07:15:08;61.14;40.04;77.43;;
68279;Laerm;55108;51.790;10.960;2023-03-04T07:17:33;65.60;42.23;82.96;;
68279;Laerm;55108;51.790;10.960;2023-03-04T07:19:58;65.55;42.53;78.59;;
68279;Laerm;55108;51.790;10.960;2023-03-04T07:22:23;64.89;40.73;77.16;;
68279;Laerm;55108;51.790;10.960;2023-03-04T07:24:49;63.20;38.24;81.25;;
68279;Laerm;55108;51.790;10.960;2023-03-04T07:27:14;65.50;40.04;79.88;;
68279;Laerm;55108;51.790;10.960;2023-03-04T07:29:39;63.32;40.78;75.31;;
68279;Laerm;55108;51.790;10.960;2023-03-04T07:32:07;65.16;42.95;76.63;;
68279;Laerm;55108;51.790;10.960;2023-03-04T07:34:32;65.70;42.26;79.22;;
68279;Laerm;55108;51.790;10.960;2023-03-04T07:36:58;59.79;37.18;74.94;;
68279;Laerm;55108;51.790;10.960;2023-03-04T07:39:23;64.48;46.23;76.91;;
68279;Laerm;55108;51.790;10.960;2023-03-04T07:41:48;63.16;41.27;78.67;;
68279;Laerm;55108;51.790;10.960;2023-03-04T07:44:13;63.88;41.67;81.78;;
68279;Laerm;55108;51.790;10.960;2023-03-04T07:46:38;68.13;42.84;82.49;;
68279;Laerm;55108;51.790;10.960;2023-03-04T07:49:03;67.09;42.21;80.85;;
68279;Laerm;55108;51.790;10.960;2023-03-04T07:51:28;66.51;41.19;79.03;;
68279;Laerm;55108;51.790;10.960;2023-03-04T07:53:58;64.93;42.68;76.92;;
68279;Laerm;55108;51.790;10.960;2023-03-04T07:56:25;63.89;40.38;78.02;;
68279;Laerm;55108;51.790;10.960;2023-03-04T07:58:50;66.46;45.36;78.16;;
68279;Laerm;55108;51.790;10.960;2023-03-04T08:01:20;64.79;38.79;80.11;;
68279;Laerm;55108;51.790;10.960;2023-03-04T08:03:45;67.05;41.97;77.51;;
68279;Laerm;55108;51.790;10.960;2023-03-04T08:06:11;64.82;37.63;76.15;;
68279;Laerm;55108;51.790;10.960;2023-03-04T08:08:37;67.32;44.68;77.60;;
68279;Laerm;55108;51.790;10.960;2023-03-04T08:11:06;64.40;41.52;75.92;;
68279;Laerm;55108;51.790;10.960;2023-03-04T08:13:32;66.63;41.72;77.60;;
68279;Laerm;55108;51.790;10.960;2023-03-04T08:15:57;67.21;42.59;79.98;;
68279;Laerm;55108;51.790;10.960;2023-03-04T08:18:23;64.56;43.51;78.12;;
68279;Laerm;55108;51.790;10.960;2023-03-04T08:20:48;64.54;39.40;76.46;;
68279;Laerm;55108;51.790;10.960;2023-03-04T08:23:13;66.61;40.43;78.12;;
68279;Laerm;55108;51.790;10.960;2023-03-04T08:25:39;67.08;44.20;77.74;;
68279;Laerm;55108;51.790;10.960;2023-03-04T08:28:05;67.08;44.23;76.38;;
68279;Laerm;55108;51.790;10.960;2023-03-04T08:30:30;66.43;39.89;79.83;;
68279;Laerm;55108;51.790;10.960;2023-03-04T08:32:55;65.01;42.54;77.20;;
68279;Laerm;55108;51.790;10.960;2023-03-04T08:35:20;64.82;45.45;76.62;;
68279;Laerm;55108;51.790;10.960;2023-03-04T08:37:45;66.75;45.06;79.75;;
68279;Laerm;55108;51.790;10.960;2023-03-04T08:40:11;65.82;45.12;77.86;;
68279;Laerm;55108;51.790;10.960;2023-03-04T08:42:36;68.51;45.91;78.40;;
68279;Laerm;55108;51.790;10.960;2023-03-04T08:45:01;67.58;43.84;77.97;;
68279;Laerm;55108;51.790;10.960;2023-03-04T08:47:27;67.90;46.73;78.43;;
68279;Laerm;55108;51.790;10.960;2023-03-04T08:49:52;68.54;49.64;78.93;;
68279;Laerm;55108;51.790;10.960;2023-03-04T08:52:17;66.87;43.67;80.32;;
68279;Laerm;55108;51.790;10.960;2023-03-04T08:54:42;67.41;43.63;77.60;;
68279;Laerm;55108;51.790;10.960;2023-03-04T08:57:07;68.03;45.22;77.39;;
68279;Laerm;55108;51.790;10.960;2023-03-04T08:59:33;67.75;47.65;75.97;;
68279;Laerm;55108;51.790;10.960;2023-03-04T09:01:58;67.94;45.62;79.83;;
68279;Laerm;55108;51.790;10.960;2023-03-04T09:04:23;66.85;44.26;79.68;;
68279;Laerm;55108;51.790;10.960;2023-03-04T09:06:48;67.20;44.45;78.44;;
68279;Laerm;55108;51.790;10.960;2023-03-04T09:09:13;68.21;46.83;77.79;;
68279;Laerm;55108;51.790;10.960;2023-03-04T09:11:38;67.57;45.87;78.79;;
68279;Laerm;55108;51.790;10.960;2023-03-04T09:14:04;67.86;45.52;78.27;;
68279;Laerm;55108;51.790;10.960;2023-03-04T09:16:29;68.46;50.77;78.79;;
68279;Laerm;55108;51.790;10.960;2023-03-04T09:18:54;66.51;44.15;76.78;;
68279;Laerm;55108;51.790;10.960;2023-03-04T09:21:19;68.33;45.65;77.58;;
68279;Laerm;55108;51.790;10.960;2023-03-04T09:23:47;68.35;52.22;77.37;;
68279;Laerm;55108;51.790;10.960;2023-03-04T09:26:13;65.86;42.52;75.23;;
68279;Laerm;55108;51.790;10.960;2023-03-04T09:28:38;67.01;48.45;75.13;;
68279;Laerm;55108;51.790;10.960;2023-03-04T09:31:09;68.58;48.38;77.20;;
68279;Laerm;55108;51.790;10.960;2023-03-04T09:33:34;67.96;49.21;78.09;;
68279;Laerm;55108;51.790;10.960;2023-03-04T09:35:59;67.39;48.54;77.77;;
68279;Laerm;55108;51.790;10.960;2023-03-04T09:38:24;66.98;42.96;79.41;;
68279;Laerm;55108;51.790;10.960;2023-03-04T09:40:51;67.65;42.45;77.70;;
68279;Laerm;55108;51.790;10.960;2023-03-04T09:43:20;66.93;43.23;76.59;;
68279;Laerm;55108;51.790;10.960;2023-03-04T09:45:48;66.44;40.99;79.10;;
68279;Laerm;55108;51.790;10.960;2023-03-04T09:48:15;67.00;48.58;77.01;;
68279;Laerm;55108;51.790;10.960;2023-03-04T09:50:43;66.50;42.49;77.99;;
68279;Laerm;55108;51.790;10.960;2023-03-04T09:55:42;67.46;48.06;79.87;;
68279;Laerm;55108;51.790;10.960;2023-03-04T10:05:36;67.56;49.68;80.03;;
68279;Laerm;55108;51.790;10.960;2023-03-04T10:10:52;64.20;42.64;80.20;;
68279;Laerm;55108;51.790;10.960;2023-03-04T10:13:22;68.63;49.29;85.31;;
68279;Laerm;55108;51.790;10.960;2023-03-04T10:15:49;66.83;44.37;76.63;;
68279;Laerm;55108;51.790;10.960;2023-03-04T10:18:17;66.97;45.65;83.48;;
68279;Laerm;55108;51.790;10.960;2023-03-04T10:23:21;68.18;44.98;80.07;;
68279;Laerm;55108;51.790;10.960;2023-03-04T10:25:46;67.53;46.12;78.99;;
68279;Laerm;55108;51.790;10.960;2023-03-04T10:28:16;66.03;41.87;77.90;;
68279;Laerm;55108;51.790;10.960;2023-03-04T10:30:47;66.95;47.15;76.99;;
68279;Laerm;55108;51.790;10.960;2023-03-04T10:33:19;66.24;45.91;75.11;;
68279;Laerm;55108;51.790;10.960;2023-03-04T10:35:47;66.49;48.86;75.97;;
68279;Laerm;55108;51.790;10.960;2023-03-04T10:38:15;67.24;50.66;75.80;;
68279;Laerm;55108;51.790;10.960;2023-03-04T10:40:42;67.69;48.96;80.44;;
68279;Laerm;55108;51.790;10.960;2023-03-04T10:43:15;68.01;43.31;77.03;;
68279;Laerm;55108;51.790;10.960;2023-03-04T10:45:40;65.99;44.34;78.40;;
68279;Laerm;55108;51.790;10.960;2023-03-04T10:48:05;64.94;42.23;75.43;;
68279;Laerm;55108;51.790;10.960;2023-03-04T10:50:30;67.55;43.06;76.64;;
68279;Laerm;55108;51.790;10.960;2023-03-04T10:52:56;67.29;42.58;77.83;;
68279;Laerm;55108;51.790;10.960;2023-03-04T10:55:23;66.97;44.76;76.87;;
68279;Laerm;55108;51.790;10.960;2023-03-04T10:57:51;67.45;43.97;78.46;;
68279;Laerm;55108;51.790;10.960;2023-03-04T11:02:46;68.73;49.53;80.91;;
68279;Laerm;55108;51.790;10.960;2023-03-04T11:05:21;67.60;42.47;79.07;;
68279;Laerm;55108;51.790;10.960;2023-03-04T11:07:54;67.08;45.21;77.60;;
68279;Laerm;55108;51.790;10.960;2023-03-04T11:10:24;67.40;48.40;78.96;;
68279;Laerm;55108;51.790;10.960;2023-03-04T11:15:24;66.87;43.06;77.50;;
68279;Laerm;55108;51.790;10.960;2023-03-04T11:18:05;67.83;43.57;80.58;;
68279;Laerm;55108;51.790;10.960;2023-03-04T11:20:44;66.17;44.84;77.88;;
68279;Laerm;55108;51.790;10.960;2023-03-04T11:23:15;65.80;42.12;76.76;;
68279;Laerm;55108;51.790;10.960;2023-03-04T11:25:47;65.18;41.93;76.42;;
68279;Laerm;55108;51.790;10.960;2023-03-04T11:28:21;67.83;45.33;78.83;;
68279;Laerm;55108;51.790;10.960;2023-03-04T11:31:07;65.13;41.56;76.41;;
68279;Laerm;55108;51.790;10.960;2023-03-04T11:33:42;68.12;44.39;78.64;;
68279;Laerm;55108;51.790;10.960;2023-03-04T11:38:38;66.63;43.80;77.04;;
68279;Laerm;55108;51.790;10.960;2023-03-04T11:44:05;67.34;43.69;87.17;;
68279;Laerm;55108;51.790;10.960;2023-03-04T11:46:43;68.93;46.45;77.60;;
68279;Laerm;55108;51.790;10.960;2023-03-04T11:49:20;67.88;44.05;78.64;;
68279;Laerm;55108;51.790;10.960;2023-03-04T11:51:52;67.40;42.41;77.36;;
68279;Laerm;55108;51.790;10.960;2023-03-04T11:54:28;65.48;39.04;79.99;;
68279;Laerm;55108;51.790;10.960;2023-03-04T11:56:58;66.89;44.74;77.38;;
68279;Laerm;55108;51.790;10.960;2023-03-04T11:59:35;66.24;40.68;77.96;;
68279;Laerm;55108;51.790;10.960;2023-03-04T12:04:32;66.88;43.85;76.72;;
68279;Laerm;55108;51.790;10.960;2023-03-04T12:14:43;64.71;43.03;76.22;;
68279;Laerm;55108;51.790;10.960;2023-03-04T12:19:41;65.86;42.14;78.22;;
68279;Laerm;55108;51.790;10.960;2023-03-04T12:22:13;66.12;44.36;77.69;;
68279;Laerm;55108;51.790;10.960;2023-03-04T12:27:23;66.21;44.65;78.59;;
68279;Laerm;55108;51.790;10.960;2023-03-04T12:29:57;66.26;43.80;78.12;;
68279;Laerm;55108;51.790;10.960;2023-03-04T12:32:26;66.36;48.95;86.80;;
68279;Laerm;55108;51.790;10.960;2023-03-04T12:35:02;67.79;46.08;83.14;;
68279;Laerm;55108;51.790;10.960;2023-03-04T12:40:22;66.75;40.54;80.35;;
68279;Laerm;55108;51.790;10.960;2023-03-04T12:45:16;67.22;45.14;77.79;;
68279;Laerm;55108;51.790;10.960;2023-03-04T12:50:28;66.33;40.21;78.80;;
68279;Laerm;55108;51.790;10.960;2023-03-04T12:53:07;66.52;43.13;77.33;;
68279;Laerm;55108;51.790;10.960;2023-03-04T12:55:36;67.39;43.91;80.65;;
68279;Laerm;55108;51.790;10.960;2023-03-04T12:58:02;66.66;43.49;77.70;;
68279;Laerm;55108;51.790;10.960;2023-03-04T13:10:39;67.09;45.68;79.09;;
68279;Laerm;55108;51.790;10.960;2023-03-04T13:13:04;67.06;48.27;78.72;;
68279;Laerm;55108;51.790;10.960;2023-03-04T13:15:31;66.92;44.72;79.35;;
68279;Laerm;55108;51.790;10.960;2023-03-04T13:18:01;65.11;45.37;78.14;;
68279;Laerm;55108;51.790;10.960;2023-03-04T13:22:58;67.78;42.88;87.30;;
68279;Laerm;55108;51.790;10.960;2023-03-04T13:25:44;67.57;41.73;77.05;;
68279;Laerm;55108;51.790;10.960;2023-03-04T13:48:49;65.87;42.28;80.84;;
68279;Laerm;55108;51.790;10.960;2023-03-04T13:56:42;66.93;45.49;83.29;;
68279;Laerm;55108;51.790;10.960;2023-03-04T13:59:12;66.67;41.51;78.46;;
68279;Laerm;55108;51.790;10.960;2023-03-04T14:04:14;66.35;40.37;76.50;;
68279;Laerm;55108;51.790;10.960;2023-03-04T14:06:41;65.86;44.68;76.27;;
68279;Laerm;55108;51.790;10.960;2023-03-04T14:09:13;66.99;43.58;81.37;;
68279;Laerm;55108;51.790;10.960;2023-03-04T14:11:39;67.88;43.17;79.49;;
68279;Laerm;55108;51.790;10.960;2023-03-04T14:14:14;64.77;43.16;75.76;;
68279;Laerm;55108;51.790;10.960;2023-03-04T14:16:54;67.06;43.04;79.96;;
68279;Laerm;55108;51.790;10.960;2023-03-04T14:19:27;66.77;46.87;77.63;;
68279;Laerm;55108;51.790;10.960;2023-03-04T14:21:52;66.06;40.44;78.17;;
68279;Laerm;55108;51.790;10.960;2023-03-04T14:24:18;67.70;45.52;79.17;;
68279;Laerm;55108;51.790;10.960;2023-03-04T14:26:44;65.45;43.57;75.41;;
68279;Laerm;55108;51.790;10.960;2023-03-04T14:29:19;66.31;42.85;77.30;;
68279;Laerm;55108;51.790;10.960;2023-03-04T14:31:45;68.05;46.59;81.54;;
68279;Laerm;55108;51.790;10.960;2023-03-04T14:34:16;66.05;40.68;78.34;;
68279;Laerm;55108;51.790;10.960;2023-03-04T14:36:43;67.06;44.56;78.34;;
68279;Laerm;55108;51.790;10.960;2023-03-04T14:39:11;66.85;41.88;80.76;;
68279;Laerm;55108;51.790;10.960;2023-03-04T14:41:39;65.72;40.51;77.20;;
68279;Laerm;55108;51.790;10.960;2023-03-04T14:44:07;66.85;42.72;79.04;;
68279;Laerm;55108;51.790;10.960;2023-03-04T14:46:35;64.21;40.30;78.10;;
68279;Laerm;55108;51.790;10.960;2023-03-04T14:49:01;67.08;45.55;78.71;;
68279;Laerm;55108;51.790;10.960;2023-03-04T14:51:46;65.74;41.76;77.04;;
68279;Laerm;55108;51.790;10.960;2023-03-04T14:56:49;65.74;39.81;76.88;;
68279;Laerm;55108;51.790;10.960;2023-03-04T14:59:14;68.93;40.81;82.18;;
68279;Laerm;55108;51.790;10.960;2023-03-04T15:01:40;69.20;39.36;81.93;;